< Cyclone 198512 1985 Season Cyclone 198514 >
Cyclone 198513 (LINDSAY)
General InformationTrack Information on Google MapsDetailed Wind InformationList of All Images || ResourceGoogle EarthGE AnimationAtom FeedGeoJSON
Detalied Best Track (Time Zone = UTC)
Year Month Day Hour Lat. Long. Pressure (hPa) Wind (kt) Class Image Chart
1985 3 6 00 -9.1 117.6 1006 20 2 Image --
1985 3 6 06 -9.4 117.6 1004 20 2 Image --
1985 3 6 12 -9.7 117.8 1002 25 2 Image --
1985 3 6 18 -9.8 118.4 1001 25 2 Image --
1985 3 7 00 -9.8 119.1 1000 25 2 Image --
1985 3 7 06 -10.1 119.8 998 30 2 Image --
1985 3 7 12 -10.6 119.3 993 35 3 Image --
1985 3 7 18 -10.9 118.4 987 40 3 Image --
1985 3 8 00 -11.3 117.7 982 45 3 Image --
1985 3 8 06 -12.0 117.2 979 50 4 Image --
1985 3 8 12 -13.0 117.9 976 60 4 Image --
1985 3 8 18 -14.0 118.8 963 70 5 Image --
1985 3 9 00 -15.0 119.9 957 75 5 Image --
1985 3 9 06 -16.1 120.8 950 80 5 Image --
1985 3 9 09 -16.7 121.1 954 80 5 Image --
1985 3 9 12 -17.2 121.4 956 80 5 Image --
1985 3 9 16 -17.9 122.0 958 80 5 Image --
1985 3 9 18 -18.3 122.2 962 80 5 Image --
1985 3 9 21 -19.0 122.4 966 70 5 Image --
1985 3 10 00 -19.7 122.6 970 60 4 Image --
1985 3 10 03 -20.3 122.8 973 50 4 Image --
1985 3 10 06 -20.8 123.2 976 45 3 Image --
1985 3 10 09 -21.2 123.8 980 40 3 Image --
1985 3 10 12 -21.7 124.5 984 40 3 Image --
1985 3 10 18 -22.9 125.9 990 35 3 Image --
1985 3 11 00 -23.9 126.9 994 30 2 Image --
1985 3 11 06 -25.2 127.5 995 30 2 Image --
1985 3 11 12 -26.8 128.4 997 30 2 Image --
1985 3 11 18 -28.3 129.8 998 25 2 Image --
< Cyclone 198512 1985 Season Cyclone 198514 >

Help